sensor_id;sensor_type;location;lat;lon;timestamp;temperature;humidity
68378;DHT22;55322;48.146;11.516;2022-12-13T00:01:10;-6.41;84.27
68378;DHT22;55322;48.146;11.516;2022-12-13T00:03:35;-6.43;82.86
68378;DHT22;55322;48.146;11.516;2022-12-13T00:06:04;-6.45;83.20
68378;DHT22;55322;48.146;11.516;2022-12-13T00:08:29;-6.45;83.16
68378;DHT22;55322;48.146;11.516;2022-12-13T00:10:59;-6.48;83.29
68378;DHT22;55322;48.146;11.516;2022-12-13T00:13:25;-6.55;83.66
68378;DHT22;55322;48.146;11.516;2022-12-13T00:15:57;-6.68;83.80
68378;DHT22;55322;48.146;11.516;2022-12-13T00:18:24;-6.66;84.58
68378;DHT22;55322;48.146;11.516;2022-12-13T00:20:50;-6.66;84.24
68378;DHT22;55322;48.146;11.516;2022-12-13T00:23:15;-6.71;84.33
68378;DHT22;55322;48.146;11.516;2022-12-13T00:25:40;-6.72;84.79
68378;DHT22;55322;48.146;11.516;2022-12-13T00:28:06;-6.77;85.10
68378;DHT22;55322;48.146;11.516;2022-12-13T00:30:31;-6.73;85.60
68378;DHT22;55322;48.146;11.516;2022-12-13T00:32:57;-6.73;85.52
68378;DHT22;55322;48.146;11.516;2022-12-13T00:35:22;-6.72;85.97
68378;DHT22;55322;48.146;11.516;2022-12-13T00:37:47;-6.75;85.61
68378;DHT22;55322;48.146;11.516;2022-12-13T00:40:13;-6.75;85.95
68378;DHT22;55322;48.146;11.516;2022-12-13T00:42:38;-6.71;86.05
68378;DHT22;55322;48.146;11.516;2022-12-13T00:45:03;-6.73;86.10
68378;DHT22;55322;48.146;11.516;2022-12-13T00:47:29;-6.77;86.78
68378;DHT22;55322;48.146;11.516;2022-12-13T00:49:54;-6.80;86.66
68378;DHT22;55322;48.146;11.516;2022-12-13T00:52:20;-6.75;86.56
68378;DHT22;55322;48.146;11.516;2022-12-13T00:54:45;-6.79;87.03
68378;DHT22;55322;48.146;11.516;2022-12-13T00:57:10;-6.73;87.34
68378;DHT22;55322;48.146;11.516;2022-12-13T00:59:36;-6.73;86.67
68378;DHT22;55322;48.146;11.516;2022-12-13T01:02:01;-6.79;86.50
68378;DHT22;55322;48.146;11.516;2022-12-13T01:04:26;-6.89;86.67
68378;DHT22;55322;48.146;11.516;2022-12-13T01:06:52;-7.00;86.95
68378;DHT22;55322;48.146;11.516;2022-12-13T01:09:21;-7.11;87.30
68378;DHT22;55322;48.146;11.516;2022-12-13T01:11:47;-7.20;87.48
68378;DHT22;55322;48.146;11.516;2022-12-13T01:14:13;-7.16;87.60
68378;DHT22;55322;48.146;11.516;2022-12-13T01:16:39;-7.17;87.20
68378;DHT22;55322;48.146;11.516;2022-12-13T01:19:04;-7.17;87.21
68378;DHT22;55322;48.146;11.516;2022-12-13T01:21:29;-7.17;87.39
68378;DHT22;55322;48.146;11.516;2022-12-13T01:23:59;-7.10;87.49
68378;DHT22;55322;48.146;11.516;2022-12-13T01:26:26;-7.16;86.79
68378;DHT22;55322;48.146;11.516;2022-12-13T01:28:51;-7.14;86.63
68378;DHT22;55322;48.146;11.516;2022-12-13T01:31:19;-7.23;86.62
68378;DHT22;55322;48.146;11.516;2022-12-13T01:33:44;-7.27;87.40
68378;DHT22;55322;48.146;11.516;2022-12-13T01:36:14;-7.38;87.68
68378;DHT22;55322;48.146;11.516;2022-12-13T01:38:40;-7.32;87.62
68378;DHT22;55322;48.146;11.516;2022-12-13T01:41:05;-7.37;87.64
68378;DHT22;55322;48.146;11.516;2022-12-13T01:46:05;-7.37;87.51
68378;DHT22;55322;48.146;11.516;2022-12-13T01:48:35;-7.44;87.84
68378;DHT22;55322;48.146;11.516;2022-12-13T01:51:04;-7.44;88.04
68378;DHT22;55322;48.146;11.516;2022-12-13T01:53:33;-7.51;88.32
68378;DHT22;55322;48.146;11.516;2022-12-13T01:56:09;-7.48;88.12
68378;DHT22;55322;48.146;11.516;2022-12-13T01:58:37;-7.42;87.92
68378;DHT22;55322;48.146;11.516;2022-12-13T02:01:03;-7.47;87.93
68378;DHT22;55322;48.146;11.516;2022-12-13T02:03:28;-7.47;87.91
68378;DHT22;55322;48.146;11.516;2022-12-13T02:06:04;-7.50;87.95
68378;DHT22;55322;48.146;11.516;2022-12-13T02:08:32;-7.47;87.87
68378;DHT22;55322;48.146;11.516;2022-12-13T02:10:57;-7.45;87.89
68378;DHT22;55322;48.146;11.516;2022-12-13T02:13:23;-7.42;87.79
68378;DHT22;55322;48.146;11.516;2022-12-13T02:16:08;-7.41;87.51
68378;DHT22;55322;48.146;11.516;2022-12-13T02:22:04;-7.51;87.95
68378;DHT22;55322;48.146;11.516;2022-12-13T02:24:53;-7.37;87.56
68378;DHT22;55322;48.146;11.516;2022-12-13T02:44:20;-7.41;88.28
68378;DHT22;55322;48.146;11.516;2022-12-13T02:47:13;-7.44;88.30
68378;DHT22;55322;48.146;11.516;2022-12-13T02:49:43;-7.47;88.54
68378;DHT22;55322;48.146;11.516;2022-12-13T02:52:12;-7.50;88.42
68378;DHT22;55322;48.146;11.516;2022-12-13T02:54:38;-7.48;88.69
68378;DHT22;55322;48.146;11.516;2022-12-13T02:57:32;-7.50;89.04
68378;DHT22;55322;48.146;11.516;2022-12-13T03:00:22;-7.52;89.18
68378;DHT22;55322;48.146;11.516;2022-12-13T03:11:08;-7.59;89.04
68378;DHT22;55322;48.146;11.516;2022-12-13T03:14:01;-7.56;89.06
68378;DHT22;55322;48.146;11.516;2022-12-13T03:16:35;-7.56;89.03
68378;DHT22;55322;48.146;11.516;2022-12-13T03:19:07;-7.56;88.65
68378;DHT22;55322;48.146;11.516;2022-12-13T03:21:41;-7.52;88.17
68378;DHT22;55322;48.146;11.516;2022-12-13T03:24:07;-7.55;88.00
68378;DHT22;55322;48.146;11.516;2022-12-13T03:26:33;-7.54;87.91
68378;DHT22;55322;48.146;11.516;2022-12-13T03:28:59;-7.58;88.01
68378;DHT22;55322;48.146;11.516;2022-12-13T03:31:24;-7.59;88.16
68378;DHT22;55322;48.146;11.516;2022-12-13T03:33:49;-7.56;87.86
68378;DHT22;55322;48.146;11.516;2022-12-13T03:36:16;-7.58;87.70
68378;DHT22;55322;48.146;11.516;2022-12-13T03:38:43;-7.59;87.68
68378;DHT22;55322;48.146;11.516;2022-12-13T03:41:12;-7.62;87.66
68378;DHT22;55322;48.146;11.516;2022-12-13T03:43:38;-7.64;87.61
68378;DHT22;55322;48.146;11.516;2022-12-13T03:46:05;-7.59;87.39
68378;DHT22;55322;48.146;11.516;2022-12-13T03:48:30;-7.68;87.57
68378;DHT22;55322;48.146;11.516;2022-12-13T03:50:56;-7.70;87.79
68378;DHT22;55322;48.146;11.516;2022-12-13T03:53:22;-7.72;87.62
68378;DHT22;55322;48.146;11.516;2022-12-13T03:55:48;-7.74;87.67
68378;DHT22;55322;48.146;11.516;2022-12-13T03:58:13;-7.68;86.95
68378;DHT22;55322;48.146;11.516;2022-12-13T04:00:39;-7.74;86.60
68378;DHT22;55322;48.146;11.516;2022-12-13T04:03:04;-7.75;86.61
68378;DHT22;55322;48.146;11.516;2022-12-13T04:05:29;-7.77;86.55
68378;DHT22;55322;48.146;11.516;2022-12-13T04:07:55;-7.79;86.48
68378;DHT22;55322;48.146;11.516;2022-12-13T04:10:21;-7.77;85.97
68378;DHT22;55322;48.146;11.516;2022-12-13T04:12:46;-7.77;86.24
68378;DHT22;55322;48.146;11.516;2022-12-13T04:15:30;-7.88;86.06
68378;DHT22;55322;48.146;11.516;2022-12-13T04:17:56;-7.85;86.01
68378;DHT22;55322;48.146;11.516;2022-12-13T04:20:21;-7.88;86.26
68378;DHT22;55322;48.146;11.516;2022-12-13T04:22:46;-7.91;86.15
68378;DHT22;55322;48.146;11.516;2022-12-13T04:25:12;-7.89;86.09
68378;DHT22;55322;48.146;11.516;2022-12-13T04:27:37;-7.95;86.26
68378;DHT22;55322;48.146;11.516;2022-12-13T04:30:04;-7.88;85.96
68378;DHT22;55322;48.146;11.516;2022-12-13T04:32:29;-7.89;85.92
68378;DHT22;55322;48.146;11.516;2022-12-13T04:34:55;-7.93;86.25
68378;DHT22;55322;48.146;11.516;2022-12-13T04:37:20;-7.92;86.05
68378;DHT22;55322;48.146;11.516;2022-12-13T04:39:45;-7.96;86.29
68378;DHT22;55322;48.146;11.516;2022-12-13T04:42:11;-7.95;86.08
68378;DHT22;55322;48.146;11.516;2022-12-13T04:44:36;-7.93;86.09
68378;DHT22;55322;48.146;11.516;2022-12-13T04:47:02;-7.99;86.43
68378;DHT22;55322;48.146;11.516;2022-12-13T04:49:29;-7.99;86.45
68378;DHT22;55322;48.146;11.516;2022-12-13T04:51:54;-7.93;86.11
68378;DHT22;55322;48.146;11.516;2022-12-13T04:54:19;-8.02;86.22
68378;DHT22;55322;48.146;11.516;2022-12-13T04:56:45;-8.06;86.55
68378;DHT22;55322;48.146;11.516;2022-12-13T04:59:10;-8.05;86.46
68378;DHT22;55322;48.146;11.516;2022-12-13T05:01:35;-8.06;86.54
68378;DHT22;55322;48.146;11.516;2022-12-13T05:04:02;-8.07;86.97
68378;DHT22;55322;48.146;11.516;2022-12-13T05:06:27;-8.12;87.39
68378;DHT22;55322;48.146;11.516;2022-12-13T05:08:53;-8.09;87.00
68378;DHT22;55322;48.146;11.516;2022-12-13T05:11:18;-8.10;87.06
68378;DHT22;55322;48.146;11.516;2022-12-13T05:13:43;-8.16;87.21
68378;DHT22;55322;48.146;11.516;2022-12-13T05:16:09;-8.17;87.07
68378;DHT22;55322;48.146;11.516;2022-12-13T05:18:35;-8.22;87.28
68378;DHT22;55322;48.146;11.516;2022-12-13T05:21:05;-8.23;87.52
68378;DHT22;55322;48.146;11.516;2022-12-13T05:23:31;-8.27;87.53
68378;DHT22;55322;48.146;11.516;2022-12-13T05:25:57;-8.20;87.20
68378;DHT22;55322;48.146;11.516;2022-12-13T05:28:23;-8.20;87.25
68378;DHT22;55322;48.146;11.516;2022-12-13T05:30:51;-8.20;87.44
68378;DHT22;55322;48.146;11.516;2022-12-13T05:33:16;-8.17;87.33
68378;DHT22;55322;48.146;11.516;2022-12-13T05:35:42;-8.19;87.36
68378;DHT22;55322;48.146;11.516;2022-12-13T05:38:08;-8.16;87.34
68378;DHT22;55322;48.146;11.516;2022-12-13T05:40:33;-8.20;87.35
68378;DHT22;55322;48.146;11.516;2022-12-13T05:42:59;-8.15;87.09
68378;DHT22;55322;48.146;11.516;2022-12-13T05:45:25;-8.13;86.85
68378;DHT22;55322;48.146;11.516;2022-12-13T05:47:50;-8.13;86.69
68378;DHT22;55322;48.146;11.516;2022-12-13T05:50:16;-8.13;86.63
68378;DHT22;55322;48.146;11.516;2022-12-13T05:52:42;-8.15;86.27
68378;DHT22;55322;48.146;11.516;2022-12-13T05:55:08;-8.20;86.55
68378;DHT22;55322;48.146;11.516;2022-12-13T05:57:33;-8.09;86.43
68378;DHT22;55322;48.146;11.516;2022-12-13T05:59:59;-8.19;87.10
68378;DHT22;55322;48.146;11.516;2022-12-13T06:02:24;-8.23;87.14
68378;DHT22;55322;48.146;11.516;2022-12-13T06:04:49;-8.23;87.17
68378;DHT22;55322;48.146;11.516;2022-12-13T06:07:15;-8.16;86.62
68378;DHT22;55322;48.146;11.516;2022-12-13T06:09:40;-8.15;86.52
68378;DHT22;55322;48.146;11.516;2022-12-13T06:12:06;-8.16;86.50
68378;DHT22;55322;48.146;11.516;2022-12-13T06:14:31;-8.17;86.22
68378;DHT22;55322;48.146;11.516;2022-12-13T06:16:57;-8.19;86.47
68378;DHT22;55322;48.146;11.516;2022-12-13T06:19:23;-8.17;86.16
68378;DHT22;55322;48.146;11.516;2022-12-13T06:21:52;-8.17;86.25
68378;DHT22;55322;48.146;11.516;2022-12-13T06:24:20;-8.25;87.16
68378;DHT22;55322;48.146;11.516;2022-12-13T06:26:46;-8.30;87.40
68378;DHT22;55322;48.146;11.516;2022-12-13T06:29:16;-8.41;88.08
68378;DHT22;55322;48.146;11.516;2022-12-13T06:31:42;-8.50;88.31
68378;DHT22;55322;48.146;11.516;2022-12-13T06:34:07;-8.53;88.39
68378;DHT22;55322;48.146;11.516;2022-12-13T06:36:33;-8.47;88.24
68378;DHT22;55322;48.146;11.516;2022-12-13T06:39:03;-8.32;87.66
68378;DHT22;55322;48.146;11.516;2022-12-13T06:41:28;-8.30;87.30
68378;DHT22;55322;48.146;11.516;2022-12-13T06:43:54;-8.37;88.16
68378;DHT22;55322;48.146;11.516;2022-12-13T06:46:19;-8.41;88.30
68378;DHT22;55322;48.146;11.516;2022-12-13T06:48:45;-8.44;89.06
68378;DHT22;55322;48.146;11.516;2022-12-13T06:51:10;-8.43;88.21
68378;DHT22;55322;48.146;11.516;2022-12-13T06:53:36;-8.39;87.77
68378;DHT22;55322;48.146;11.516;2022-12-13T06:56:04;-8.34;87.80
68378;DHT22;55322;48.146;11.516;2022-12-13T06:58:29;-8.34;87.78
68378;DHT22;55322;48.146;11.516;2022-12-13T07:01:04;-8.26;86.76
68378;DHT22;55322;48.146;11.516;2022-12-13T07:03:30;-8.23;86.70
68378;DHT22;55322;48.146;11.516;2022-12-13T07:05:58;-8.25;87.17
68378;DHT22;55322;48.146;11.516;2022-12-13T07:08:23;-8.25;86.56
68378;DHT22;55322;48.146;11.516;2022-12-13T07:10:50;-8.27;86.48
68378;DHT22;55322;48.146;11.516;2022-12-13T07:13:18;-8.23;86.76
68378;DHT22;55322;48.146;11.516;2022-12-13T07:15:45;-8.20;86.72
68378;DHT22;55322;48.146;11.516;2022-12-13T07:18:10;-8.26;86.84
68378;DHT22;55322;48.146;11.516;2022-12-13T07:20:40;-8.32;86.97
68378;DHT22;55322;48.146;11.516;2022-12-13T07:23:05;-8.34;86.96
68378;DHT22;55322;48.146;11.516;2022-12-13T07:25:31;-8.34;86.78
68378;DHT22;55322;48.146;11.516;2022-12-13T07:28:02;-8.41;86.85
68378;DHT22;55322;48.146;11.516;2022-12-13T07:30:28;-8.51;87.32
68378;DHT22;55322;48.146;11.516;2022-12-13T07:32:54;-8.56;87.29
68378;DHT22;55322;48.146;11.516;2022-12-13T07:35:19;-8.54;87.11
68378;DHT22;55322;48.146;11.516;2022-12-13T07:37:44;-8.54;87.54
68378;DHT22;55322;48.146;11.516;2022-12-13T07:40:10;-8.60;87.06
68378;DHT22;55322;48.146;11.516;2022-12-13T07:42:35;-8.53;87.61
68378;DHT22;55322;48.146;11.516;2022-12-13T07:45:01;-8.47;88.25
68378;DHT22;55322;48.146;11.516;2022-12-13T07:47:30;-8.56;87.18
68378;DHT22;55322;48.146;11.516;2022-12-13T07:49:56;-8.68;87.22
68378;DHT22;55322;48.146;11.516;2022-12-13T07:52:22;-8.67;87.76
68378;DHT22;55322;48.146;11.516;2022-12-13T07:54:47;-8.57;87.60
68378;DHT22;55322;48.146;11.516;2022-12-13T07:57:13;-8.51;87.29
68378;DHT22;55322;48.146;11.516;2022-12-13T07:59:38;-8.09;85.97
68378;DHT22;55322;48.146;11.516;2022-12-13T08:02:05;-8.15;85.34
68378;DHT22;55322;48.146;11.516;2022-12-13T08:04:30;-8.34;86.04
68378;DHT22;55322;48.146;11.516;2022-12-13T08:06:56;-8.39;86.86
68378;DHT22;55322;48.146;11.516;2022-12-13T08:09:21;-8.43;86.72
68378;DHT22;55322;48.146;11.516;2022-12-13T08:11:47;-8.43;86.71
68378;DHT22;55322;48.146;11.516;2022-12-13T08:14:12;-8.40;86.75
68378;DHT22;55322;48.146;11.516;2022-12-13T08:16:38;-8.33;86.62
68378;DHT22;55322;48.146;11.516;2022-12-13T08:19:03;-8.22;87.44
68378;DHT22;55322;48.146;11.516;2022-12-13T08:21:36;-8.29;86.19
68378;DHT22;55322;48.146;11.516;2022-12-13T08:24:02;-7.79;87.89
68378;DHT22;55322;48.146;11.516;2022-12-13T08:26:27;-6.80;85.39
68378;DHT22;55322;48.146;11.516;2022-12-13T08:28:52;-6.45;82.50
68378;DHT22;55322;48.146;11.516;2022-12-13T08:31:18;-6.89;79.11
68378;DHT22;55322;48.146;11.516;2022-12-13T08:33:43;-6.35;79.44
68378;DHT22;55322;48.146;11.516;2022-12-13T08:36:12;-6.21;78.60
68378;DHT22;55322;48.146;11.516;2022-12-13T08:38:40;-6.04;76.82
68378;DHT22;55322;48.146;11.516;2022-12-13T08:41:05;-5.71;76.27
68378;DHT22;55322;48.146;11.516;2022-12-13T08:43:31;-5.32;75.66
68378;DHT22;55322;48.146;11.516;2022-12-13T08:45:56;-4.89;74.85
68378;DHT22;55322;48.146;11.516;2022-12-13T08:48:22;-5.16;73.76
68378;DHT22;55322;48.146;11.516;2022-12-13T08:50:47;-4.87;73.10
68378;DHT22;55322;48.146;11.516;2022-12-13T08:53:12;-5.12;73.72
68378;DHT22;55322;48.146;11.516;2022-12-13T08:55:38;-5.06;73.10
68378;DHT22;55322;48.146;11.516;2022-12-13T08:58:04;-5.74;73.38
68378;DHT22;55322;48.146;11.516;2022-12-13T09:00:33;-5.32;79.07
68378;DHT22;55322;48.146;11.516;2022-12-13T09:02:58;-5.12;73.42
68378;DHT22;55322;48.146;11.516;2022-12-13T09:05:23;-5.17;73.27
68378;DHT22;55322;48.146;11.516;2022-12-13T09:07:53;-5.03;74.74
68378;DHT22;55322;48.146;11.516;2022-12-13T09:10:19;-5.16;72.67
68378;DHT22;55322;48.146;11.516;2022-12-13T09:12:44;-5.05;73.88
68378;DHT22;55322;48.146;11.516;2022-12-13T09:15:10;-5.37;73.53
68378;DHT22;55322;48.146;11.516;2022-12-13T09:17:35;-4.99;73.89
68378;DHT22;55322;48.146;11.516;2022-12-13T09:20:00;-4.38;72.68
68378;DHT22;55322;48.146;11.516;2022-12-13T09:22:26;-4.60;71.96
68378;DHT22;55322;48.146;11.516;2022-12-13T09:24:52;-4.47;71.62
68378;DHT22;55322;48.146;11.516;2022-12-13T09:27:17;-4.48;71.23
68378;DHT22;55322;48.146;11.516;2022-12-13T09:29:43;-4.62;72.94
68378;DHT22;55322;48.146;11.516;2022-12-13T09:32:08;-4.48;73.36
68378;DHT22;55322;48.146;11.516;2022-12-13T09:34:34;-4.85;72.64
68378;DHT22;55322;48.146;11.516;2022-12-13T09:36:59;-4.72;73.70
68378;DHT22;55322;48.146;11.516;2022-12-13T09:39:24;-4.96;73.62
68378;DHT22;55322;48.146;11.516;2022-12-13T09:41:52;-4.93;75.09
68378;DHT22;55322;48.146;11.516;2022-12-13T09:46:45;-4.91;75.03
68378;DHT22;55322;48.146;11.516;2022-12-13T09:49:15;-4.75;73.09
68378;DHT22;55322;48.146;11.516;2022-12-13T09:51:44;-4.72;73.08
68378;DHT22;55322;48.146;11.516;2022-12-13T09:54:17;-4.85;73.07
68378;DHT22;55322;48.146;11.516;2022-12-13T09:56:43;-4.85;73.93
68378;DHT22;55322;48.146;11.516;2022-12-13T09:59:14;-5.02;73.37
68378;DHT22;55322;48.146;11.516;2022-12-13T10:01:40;-4.72;74.40
68378;DHT22;55322;48.146;11.516;2022-12-13T10:04:11;-4.78;74.68
68378;DHT22;55322;48.146;11.516;2022-12-13T10:06:37;-4.77;73.29
68378;DHT22;55322;48.146;11.516;2022-12-13T10:09:05;-4.62;72.69
68378;DHT22;55322;48.146;11.516;2022-12-13T10:11:32;-4.72;72.33
68378;DHT22;55322;48.146;11.516;2022-12-13T10:14:15;-4.30;71.39
68378;DHT22;55322;48.146;11.516;2022-12-13T10:17:02;-4.64;72.03
68378;DHT22;55322;48.146;11.516;2022-12-13T10:19:43;-4.27;72.29
68378;DHT22;55322;48.146;11.516;2022-12-13T10:22:11;-4.51;72.03
68378;DHT22;55322;48.146;11.516;2022-12-13T10:27:14;-4.05;72.26
68378;DHT22;55322;48.146;11.516;2022-12-13T10:29:56;-3.78;73.05
68378;DHT22;55322;48.146;11.516;2022-12-13T10:32:22;-3.59;70.18
68378;DHT22;55322;48.146;11.516;2022-12-13T10:34:48;-4.17;70.93
68378;DHT22;55322;48.146;11.516;2022-12-13T10:39:48;-4.64;72.50
68378;DHT22;55322;48.146;11.516;2022-12-13T10:42:17;-4.37;73.50
68378;DHT22;55322;48.146;11.516;2022-12-13T10:44:43;-4.10;71.57
68378;DHT22;55322;48.146;11.516;2022-12-13T10:49:48;-4.40;71.33
68378;DHT22;55322;48.146;11.516;2022-12-13T10:52:29;-4.65;72.48
68378;DHT22;55322;48.146;11.516;2022-12-13T10:54:57;-4.99;73.88
68378;DHT22;55322;48.146;11.516;2022-12-13T10:57:23;-4.53;73.83
68378;DHT22;55322;48.146;11.516;2022-12-13T10:59:50;-4.14;73.15
68378;DHT22;55322;48.146;11.516;2022-12-13T11:04:44;-4.80;72.53
68378;DHT22;55322;48.146;11.516;2022-12-13T11:09:54;-4.70;73.66
68378;DHT22;55322;48.146;11.516;2022-12-13T11:12:22;-4.80;73.84
68378;DHT22;55322;48.146;11.516;2022-12-13T11:17:20;-4.31;73.22
68378;DHT22;55322;48.146;11.516;2022-12-13T11:19:54;-4.54;73.50
68378;DHT22;55322;48.146;11.516;2022-12-13T11:22:24;-4.46;73.39
68378;DHT22;55322;48.146;11.516;2022-12-13T11:24:55;-4.10;73.06
68378;DHT22;55322;48.146;11.516;2022-12-13T11:27:37;-3.90;72.06
68378;DHT22;55322;48.146;11.516;2022-12-13T11:30:23;-3.89;71.42
68378;DHT22;55322;48.146;11.516;2022-12-13T11:38:31;-4.11;72.19
68378;DHT22;55322;48.146;11.516;2022-12-13T11:41:08;-3.97;72.51
68378;DHT22;55322;48.146;11.516;2022-12-13T11:43:45;-4.31;73.65
68378;DHT22;55322;48.146;11.516;2022-12-13T11:46:39;-4.54;73.84
68378;DHT22;55322;48.146;11.516;2022-12-13T11:49:16;-4.24;74.65
68378;DHT22;55322;48.146;11.516;2022-12-13T11:51:50;-4.11;73.25
68378;DHT22;55322;48.146;11.516;2022-12-13T12:03:33;-4.57;73.98
68378;DHT22;55322;48.146;11.516;2022-12-13T12:06:08;-4.54;75.59
68378;DHT22;55322;48.146;11.516;2022-12-13T12:08:41;-4.60;76.02
68378;DHT22;55322;48.146;11.516;2022-12-13T12:11:19;-4.67;76.01
68378;DHT22;55322;48.146;11.516;2022-12-13T12:13:50;-4.77;75.74
68378;DHT22;55322;48.146;11.516;2022-12-13T12:16:27;-4.81;75.54
68378;DHT22;55322;48.146;11.516;2022-12-13T12:18:54;-4.60;76.38
68378;DHT22;55322;48.146;11.516;2022-12-13T12:24:23;-4.98;76.22
68378;DHT22;55322;48.146;11.516;2022-12-13T12:29:56;-4.71;77.10
68378;DHT22;55322;48.146;11.516;2022-12-13T12:32:49;-4.80;76.28
68378;DHT22;55322;48.146;11.516;2022-12-13T12:35:38;-4.57;77.75
68378;DHT22;55322;48.146;11.516;2022-12-13T12:38:18;-4.53;77.02
68378;DHT22;55322;48.146;11.516;2022-12-13T12:43:41;-4.64;75.52
68378;DHT22;55322;48.146;11.516;2022-12-13T12:51:31;-5.06;79.37
68378;DHT22;55322;48.146;11.516;2022-12-13T12:54:36;-5.13;79.15
68378;DHT22;55322;48.146;11.516;2022-12-13T12:57:22;-5.17;79.85
68378;DHT22;55322;48.146;11.516;2022-12-13T13:02:55;-5.03;79.60
68378;DHT22;55322;48.146;11.516;2022-12-13T13:05:44;-4.85;78.65
68378;DHT22;55322;48.146;11.516;2022-12-13T13:08:16;-4.77;79.62
68378;DHT22;55322;48.146;11.516;2022-12-13T13:10:44;-4.99;78.36
68378;DHT22;55322;48.146;11.516;2022-12-13T13:16:39;-4.96;77.72
68378;DHT22;55322;48.146;11.516;2022-12-13T13:21:50;-5.09;78.49
68378;DHT22;55322;48.146;11.516;2022-12-13T13:24:27;-4.98;80.20
68378;DHT22;55322;48.146;11.516;2022-12-13T13:26:58;-4.92;78.97
68378;DHT22;55322;48.146;11.516;2022-12-13T13:32:00;-5.06;78.92
68378;DHT22;55322;48.146;11.516;2022-12-13T13:34:33;-5.11;78.43
68378;DHT22;55322;48.146;11.516;2022-12-13T13:37:00;-5.09;78.56
68378;DHT22;55322;48.146;11.516;2022-12-13T13:47:27;-5.17;79.08
68378;DHT22;55322;48.146;11.516;2022-12-13T13:58:31;-5.11;80.26
68378;DHT22;55322;48.146;11.516;2022-12-13T14:01:41;-5.13;80.49
68378;DHT22;55322;48.146;11.516;2022-12-13T14:07:27;-5.30;78.75
68378;DHT22;55322;48.146;11.516;2022-12-13T14:15:49;-5.52;80.10
68378;DHT22;55322;48.146;11.516;2022-12-13T14:24:34;-5.55;79.82
68378;DHT22;55322;48.146;11.516;2022-12-13T14:27:25;-5.57;80.07
68378;DHT22;55322;48.146;11.516;2022-12-13T14:29:52;-5.59;80.71
68378;DHT22;55322;48.146;11.516;2022-12-13T14:32:22;-5.66;80.85
68378;DHT22;55322;48.146;11.516;2022-12-13T14:34:49;-5.64;81.59
68378;DHT22;55322;48.146;11.516;2022-12-13T14:37:21;-5.59;81.86
68378;DHT22;55322;48.146;11.516;2022-12-13T14:39:48;-5.49;81.82
68378;DHT22;55322;48.146;11.516;2022-12-13T14:42:31;-5.70;81.58
68378;DHT22;55322;48.146;11.516;2022-12-13T14:45:22;-5.60;82.77
68378;DHT22;55322;48.146;11.516;2022-12-13T14:47:52;-5.60;81.70
68378;DHT22;55322;48.146;11.516;2022-12-13T14:50:19;-5.71;81.87
68378;DHT22;55322;48.146;11.516;2022-12-13T14:52:46;-5.74;81.82
68378;DHT22;55322;48.146;11.516;2022-12-13T14:55:38;-5.78;82.49
68378;DHT22;55322;48.146;11.516;2022-12-13T14:58:16;-5.77;82.27
68378;DHT22;55322;48.146;11.516;2022-12-13T15:00:42;-5.78;82.29
68378;DHT22;55322;48.146;11.516;2022-12-13T15:03:20;-5.87;82.56
68378;DHT22;55322;48.146;11.516;2022-12-13T15:05:45;-5.86;82.95
68378;DHT22;55322;48.146;11.516;2022-12-13T15:08:16;-5.86;82.73
68378;DHT22;55322;48.146;11.516;2022-12-13T15:10:59;-5.86;83.04
68378;DHT22;55322;48.146;11.516;2022-12-13T15:13:35;-5.90;83.18
68378;DHT22;55322;48.146;11.516;2022-12-13T15:16:06;-5.91;83.52
68378;DHT22;55322;48.146;11.516;2022-12-13T15:18:34;-5.88;84.16
68378;DHT22;55322;48.146;11.516;2022-12-13T15:21:00;-5.94;83.40
68378;DHT22;55322;48.146;11.516;2022-12-13T15:23:37;-5.94;83.85
68378;DHT22;55322;48.146;11.516;2022-12-13T15:26:13;-6.02;83.61
68378;DHT22;55322;48.146;11.516;2022-12-13T15:28:42;-5.97;83.76
68378;DHT22;55322;48.146;11.516;2022-12-13T15:31:08;-5.94;84.68
68378;DHT22;55322;48.146;11.516;2022-12-13T15:33:34;-5.88;84.61
68378;DHT22;55322;48.146;11.516;2022-12-13T15:38:50;-5.87;84.59
68378;DHT22;55322;48.146;11.516;2022-12-13T15:41:29;-5.86;84.91
68378;DHT22;55322;48.146;11.516;2022-12-13T15:43:59;-5.88;84.24
68378;DHT22;55322;48.146;11.516;2022-12-13T15:46:30;-5.83;84.54
68378;DHT22;55322;48.146;11.516;2022-12-13T15:48:58;-5.93;84.19
68378;DHT22;55322;48.146;11.516;2022-12-13T15:51:26;-5.90;84.30
68378;DHT22;55322;48.146;11.516;2022-12-13T15:59:29;-5.88;84.22
68378;DHT22;55322;48.146;11.516;2022-12-13T16:01:54;-5.91;84.57
68378;DHT22;55322;48.146;11.516;2022-12-13T16:04:25;-5.80;84.82
68378;DHT22;55322;48.146;11.516;2022-12-13T16:06:52;-5.84;84.57
68378;DHT22;55322;48.146;11.516;2022-12-13T16:09:21;-5.83;84.76
68378;DHT22;55322;48.146;11.516;2022-12-13T16:11:50;-5.77;84.85
68378;DHT22;55322;48.146;11.516;2022-12-13T16:14:35;-5.80;84.86
68378;DHT22;55322;48.146;11.516;2022-12-13T16:17:15;-5.83;85.27
68378;DHT22;55322;48.146;11.516;2022-12-13T16:19:42;-5.83;85.37
68378;DHT22;55322;48.146;11.516;2022-12-13T16:22:07;-5.80;85.51
68378;DHT22;55322;48.146;11.516;2022-12-13T16:24:33;-5.81;86.03
68378;DHT22;55322;48.146;11.516;2022-12-13T16:26:58;-5.74;86.11
68378;DHT22;55322;48.146;11.516;2022-12-13T16:29:23;-5.77;85.97
68378;DHT22;55322;48.146;11.516;2022-12-13T16:31:49;-5.84;86.17
68378;DHT22;55322;48.146;11.516;2022-12-13T16:34:14;-5.87;86.64
68378;DHT22;55322;48.146;11.516;2022-12-13T16:36:43;-5.88;86.86
68378;DHT22;55322;48.146;11.516;2022-12-13T16:39:10;-5.84;86.59
68378;DHT22;55322;48.146;11.516;2022-12-13T16:41:38;-5.86;86.73
68378;DHT22;55322;48.146;11.516;2022-12-13T16:44:06;-5.87;86.97
68378;DHT22;55322;48.146;11.516;2022-12-13T16:46:33;-5.87;87.15
68378;DHT22;55322;48.146;11.516;2022-12-13T16:49:00;-5.81;87.45
68378;DHT22;55322;48.146;11.516;2022-12-13T16:51:25;-5.91;87.50
68378;DHT22;55322;48.146;11.516;2022-12-13T16:53:51;-5.90;87.92
68378;DHT22;55322;48.146;11.516;2022-12-13T16:56:16;-5.93;88.17
68378;DHT22;55322;48.146;11.516;2022-12-13T16:58:46;-5.91;88.30
68378;DHT22;55322;48.146;11.516;2022-12-13T18:03:23;-6.11;91.79
68378;DHT22;55322;48.146;11.516;2022-12-13T18:05:55;-6.18;91.10
68378;DHT22;55322;48.146;11.516;2022-12-13T18:08:21;-6.12;91.18
68378;DHT22;55322;48.146;11.516;2022-12-13T18:10:54;-6.20;91.13
68378;DHT22;55322;48.146;11.516;2022-12-13T18:13:21;-6.24;91.30
68378;DHT22;55322;48.146;11.516;2022-12-13T18:15:47;-6.20;91.13
68378;DHT22;55322;48.146;11.516;2022-12-13T18:18:12;-6.18;91.21
68378;DHT22;55322;48.146;11.516;2022-12-13T18:20:37;-6.18;91.00
68378;DHT22;55322;48.146;11.516;2022-12-13T18:23:03;-6.17;90.81
68378;DHT22;55322;48.146;11.516;2022-12-13T18:25:28;-6.22;91.15
68378;DHT22;55322;48.146;11.516;2022-12-13T18:27:54;-6.20;91.10
68378;DHT22;55322;48.146;11.516;2022-12-13T18:30:19;-6.21;91.24
68378;DHT22;55322;48.146;11.516;2022-12-13T18:32:46;-6.24;90.93
68378;DHT22;55322;48.146;11.516;2022-12-13T18:35:11;-6.22;90.95
68378;DHT22;55322;48.146;11.516;2022-12-13T18:37:36;-6.25;90.88